Terminal Aerodrome Forecast
Issued by NWS Sioux Falls, SD

Home | Current Version | Previous Version | Graphics & Text | Print | Product List | Glossary On
Versions: 1 2 3 4 5 6 7 8 9 10 11 12 13 14 15
000
FTUS43 KFSD 040520
TAFHON
TAF
KHON 040520Z 0406/0506 29007KT P6SM SCT040 BKN150
     FM041200 33012KT P6SM BKN035
      TEMPO 0412/0414 5SM -SN
     FM041500 33017G24KT P6SM SCT035
     FM041800 33016G24KT P6SM SCT025
     FM050000 36008KT P6SM SKC
     FM050200 VRB03KT P6SM SKC=

USA.gov is the U.S. government's official web portal to all federal, state and local government web resources and services.